createdAt,value
2022-12-01T00:01:22.393Z,4.50
2022-12-01T00:03:50.389Z,4.50
2022-12-01T00:06:20.042Z,4.50
2022-12-01T00:09:04.440Z,4.50
2022-12-01T00:11:34.461Z,4.50
2022-12-01T00:14:02.576Z,4.50
2022-12-01T00:16:30.928Z,4.50
2022-12-01T00:18:59.319Z,4.50
2022-12-01T00:21:28.008Z,4.50
2022-12-01T00:23:57.727Z,4.50
2022-12-01T00:26:27.020Z,4.50
2022-12-01T00:28:57.983Z,4.50
2022-12-01T00:31:26.557Z,4.50
2022-12-01T00:33:54.628Z,4.50
2022-12-01T00:36:22.998Z,4.50
2022-12-01T00:38:53.669Z,4.50
2022-12-01T00:41:22.021Z,4.50
2022-12-01T00:43:50.100Z,4.50
2022-12-01T00:46:19.925Z,4.50
2022-12-01T00:48:48.229Z,4.50
2022-12-01T00:51:16.219Z,4.50
2022-12-01T00:53:44.371Z,4.50
2022-12-01T00:56:12.396Z,4.50
2022-12-01T00:58:40.462Z,4.50
2022-12-01T01:01:08.480Z,4.50
2022-12-01T01:03:37.853Z,4.50
2022-12-01T01:06:07.906Z,4.50
2022-12-01T01:08:36.167Z,4.50
2022-12-01T01:11:04.622Z,4.50
2022-12-01T01:13:33.014Z,4.50
2022-12-01T01:16:02.248Z,4.50
2022-12-01T01:18:30.784Z,4.50
2022-12-01T01:21:01.632Z,4.50
2022-12-01T01:23:29.826Z,4.40
2022-12-01T01:26:03.050Z,4.40
2022-12-01T01:28:31.925Z,4.40
2022-12-01T01:31:00.255Z,4.40
2022-12-01T01:33:28.302Z,4.40
2022-12-01T01:36:01.214Z,4.40
2022-12-01T01:38:29.239Z,4.40
2022-12-01T01:40:57.407Z,4.40
2022-12-01T01:43:44.059Z,4.40
2022-12-01T01:46:13.630Z,4.40
2022-12-01T01:48:44.575Z,4.40
2022-12-01T01:51:15.522Z,4.40
2022-12-01T01:53:46.434Z,4.40
2022-12-01T01:56:14.812Z,4.40
2022-12-01T01:58:43.184Z,4.40
2022-12-01T02:01:11.769Z,4.40
2022-12-01T02:03:42.537Z,4.40
2022-12-01T02:06:12.131Z,4.40
2022-12-01T02:08:41.494Z,4.40
2022-12-01T02:11:34.369Z,4.40
2022-12-01T02:14:10.655Z,4.40
2022-12-01T02:16:44.828Z,4.40
2022-12-01T02:19:38.914Z,4.40
2022-12-01T02:22:19.515Z,4.40
2022-12-01T02:25:16.647Z,4.40
2022-12-01T02:28:25.012Z,4.40
2022-12-01T02:30:57.941Z,4.40
2022-12-01T02:33:30.449Z,4.40
2022-12-01T02:36:02.970Z,4.40
2022-12-01T02:38:34.738Z,4.40
2022-12-01T02:41:11.386Z,4.40
2022-12-01T02:43:44.763Z,4.40
2022-12-01T02:46:18.933Z,4.40
2022-12-01T02:48:50.314Z,4.40
2022-12-01T02:51:21.386Z,4.40
2022-12-01T02:53:49.705Z,4.40
2022-12-01T02:56:23.225Z,4.40
2022-12-01T02:58:51.527Z,4.40
2022-12-01T03:01:33.589Z,4.40
2022-12-01T03:04:12.315Z,4.40
2022-12-01T03:06:49.439Z,4.40
2022-12-01T03:09:27.237Z,4.40
2022-12-01T03:12:04.395Z,4.30
2022-12-01T03:14:40.616Z,4.30
2022-12-01T03:17:15.758Z,4.30
2022-12-01T03:19:48.709Z,4.30
2022-12-01T03:22:23.146Z,4.30
2022-12-01T03:24:52.466Z,4.30
2022-12-01T03:27:26.120Z,4.30
2022-12-01T03:29:57.554Z,4.30
2022-12-01T03:32:31.796Z,4.30
2022-12-01T03:35:05.844Z,4.30
2022-12-01T03:37:37.669Z,4.30
2022-12-01T03:40:09.915Z,4.30
2022-12-01T03:42:42.109Z,4.30
2022-12-01T03:45:17.026Z,4.30
2022-12-01T03:47:46.905Z,4.30
2022-12-01T03:50:15.409Z,4.30
2022-12-01T03:52:52.532Z,4.30
2022-12-01T03:55:25.067Z,4.30
2022-12-01T03:57:57.947Z,4.30
2022-12-01T04:00:26.762Z,4.30
2022-12-01T04:02:58.198Z,4.30
2022-12-01T04:05:27.095Z,4.30
2022-12-01T04:07:55.158Z,4.30
2022-12-01T04:10:23.551Z,4.30
2022-12-01T04:12:50.716Z,4.30
2022-12-01T04:15:18.929Z,4.30
2022-12-01T04:17:46.909Z,4.30
2022-12-01T04:20:17.247Z,4.30
2022-12-01T04:22:45.904Z,4.30
2022-12-01T04:25:13.984Z,4.30
2022-12-01T04:27:42.050Z,4.30
2022-12-01T04:30:11.494Z,4.30
2022-12-01T04:32:40.600Z,4.30
2022-12-01T04:35:10.436Z,4.30
2022-12-01T04:37:40.454Z,4.30
2022-12-01T04:40:09.696Z,4.30
2022-12-01T04:42:37.713Z,4.30
2022-12-01T04:45:06.164Z,4.30
2022-12-01T04:47:34.121Z,4.30
2022-12-01T04:50:02.141Z,4.30
2022-12-01T04:52:35.109Z,4.30
2022-12-01T04:55:05.067Z,4.30
2022-12-01T04:57:33.062Z,4.30
2022-12-01T05:00:01.066Z,4.30
2022-12-01T05:02:29.081Z,4.30
2022-12-01T05:04:57.122Z,4.30
2022-12-01T05:07:25.110Z,4.30
2022-12-01T05:09:55.083Z,4.30
2022-12-01T05:12:24.453Z,4.30
2022-12-01T05:14:52.473Z,4.30
2022-12-01T05:17:20.487Z,4.30
2022-12-01T05:20:05.985Z,4.30
2022-12-01T05:23:03.755Z,4.30
2022-12-01T05:25:21.985Z,4.30
2022-12-01T05:27:51.401Z,4.20
2022-12-01T05:30:22.058Z,4.20
2022-12-01T05:32:53.545Z,4.20
2022-12-01T05:35:21.536Z,4.20
2022-12-01T05:37:49.539Z,4.20
2022-12-01T05:40:17.721Z,4.20
2022-12-01T05:42:45.786Z,4.20
2022-12-01T05:45:15.163Z,4.20
2022-12-01T05:47:43.170Z,4.20
2022-12-01T05:50:11.668Z,4.20
2022-12-01T05:52:39.644Z,4.10
2022-12-01T05:55:08.607Z,4.10
2022-12-01T05:57:36.567Z,4.10
2022-12-01T06:00:06.560Z,4.10
2022-12-01T06:02:36.025Z,4.10
2022-12-01T06:05:04.172Z,4.20
2022-12-01T06:07:33.669Z,4.20
2022-12-01T06:10:02.114Z,4.20
2022-12-01T06:12:30.120Z,4.10
2022-12-01T06:14:58.108Z,4.10
2022-12-01T06:17:26.102Z,4.10
2022-12-01T06:19:55.463Z,4.10
2022-12-01T06:22:23.445Z,4.10
2022-12-01T06:24:51.527Z,4.10
2022-12-01T06:27:19.511Z,4.10
2022-12-01T06:29:49.218Z,4.00
2022-12-01T06:32:17.458Z,4.00
2022-12-01T06:34:45.446Z,4.00
2022-12-01T06:37:16.755Z,4.00
2022-12-01T06:39:44.773Z,4.00
2022-12-01T06:42:13.126Z,4.00
2022-12-01T06:44:41.128Z,4.00
2022-12-01T06:47:09.196Z,4.00
2022-12-01T06:49:37.957Z,4.00
2022-12-01T06:52:06.080Z,4.00
2022-12-01T06:54:37.442Z,4.00
2022-12-01T06:57:05.870Z,4.00
2022-12-01T06:59:34.130Z,4.00
2022-12-01T07:02:03.059Z,4.00
2022-12-01T07:04:31.762Z,4.00
2022-12-01T07:06:59.743Z,4.00
2022-12-01T07:09:27.739Z,4.00
2022-12-01T07:11:57.080Z,3.90
2022-12-01T07:14:26.586Z,3.90
2022-12-01T07:16:55.102Z,3.90
2022-12-01T07:19:23.182Z,3.90
2022-12-01T07:21:51.173Z,3.90
2022-12-01T07:24:19.301Z,3.90
2022-12-01T07:26:48.150Z,3.90
2022-12-01T07:29:17.671Z,3.90
2022-12-01T07:31:45.673Z,3.90
2022-12-01T07:34:14.263Z,3.90
2022-12-01T07:36:42.346Z,3.90
2022-12-01T07:39:10.365Z,3.90
2022-12-01T07:41:38.350Z,3.90
2022-12-01T07:44:06.446Z,3.90
2022-12-01T07:46:35.940Z,3.90
2022-12-01T07:49:07.089Z,3.90
2022-12-01T07:51:35.973Z,3.90
2022-12-01T07:54:06.312Z,3.80
2022-12-01T07:56:35.148Z,3.80
2022-12-01T07:59:03.290Z,3.80
2022-12-01T08:01:31.368Z,3.80
2022-12-01T08:04:01.535Z,3.80
2022-12-01T08:06:29.510Z,3.80
2022-12-01T08:08:57.631Z,3.80
2022-12-01T08:11:26.980Z,3.80
2022-12-01T08:13:54.974Z,3.80
2022-12-01T08:16:24.532Z,3.80
2022-12-01T08:18:53.078Z,3.70
2022-12-01T08:21:24.598Z,3.80
2022-12-01T08:23:55.497Z,3.80
2022-12-01T08:26:25.229Z,3.80
2022-12-01T08:28:53.249Z,3.70
2022-12-01T08:31:24.001Z,3.70
2022-12-01T08:33:52.815Z,3.70
2022-12-01T08:36:22.969Z,3.70
2022-12-01T08:38:52.627Z,3.80
2022-12-01T08:41:21.571Z,3.80
2022-12-01T08:43:58.825Z,3.80
2022-12-01T08:46:28.767Z,3.80
2022-12-01T08:48:57.697Z,3.80
2022-12-01T08:51:27.956Z,3.80
2022-12-01T08:53:57.699Z,3.80
2022-12-01T08:56:27.970Z,3.80
2022-12-01T08:58:56.399Z,3.80
2022-12-01T09:01:25.676Z,3.80
2022-12-01T09:04:05.706Z,3.80
2022-12-01T09:06:39.430Z,3.80
2022-12-01T09:09:08.573Z,3.80
2022-12-01T09:11:36.666Z,3.80
2022-12-01T09:14:05.257Z,3.80
2022-12-01T09:16:33.802Z,3.80
2022-12-01T09:19:02.058Z,3.80
2022-12-01T09:21:31.451Z,3.80
2022-12-01T09:24:01.637Z,3.80
2022-12-01T09:26:30.100Z,3.80
2022-12-01T09:29:00.727Z,3.80
2022-12-01T09:31:29.553Z,3.80
2022-12-01T09:33:59.298Z,3.80
2022-12-01T09:36:28.441Z,3.80
2022-12-01T09:38:56.482Z,3.80
2022-12-01T09:41:28.158Z,3.80
2022-12-01T09:44:01.711Z,3.80
2022-12-01T09:46:34.284Z,3.80
2022-12-01T09:49:03.681Z,3.80
2022-12-01T09:51:36.071Z,3.80
2022-12-01T09:54:04.652Z,3.80
2022-12-01T09:56:41.352Z,3.80
2022-12-01T09:59:19.602Z,3.80
2022-12-01T10:01:51.104Z,3.80
2022-12-01T10:04:23.798Z,3.80
2022-12-01T10:06:57.419Z,3.80
2022-12-01T10:09:30.770Z,3.80
2022-12-01T10:12:07.787Z,3.80
2022-12-01T10:14:37.442Z,3.80
2022-12-01T10:17:15.222Z,3.80
2022-12-01T10:19:51.031Z,3.90
2022-12-01T10:22:43.264Z,3.90
2022-12-01T10:25:22.012Z,3.90
2022-12-01T10:28:04.599Z,3.90
2022-12-01T10:30:39.135Z,3.90
2022-12-01T10:33:18.366Z,3.90
2022-12-01T10:35:46.476Z,3.90
2022-12-01T10:38:20.925Z,3.90
2022-12-01T10:40:50.884Z,3.90
2022-12-01T10:43:22.287Z,4.00
2022-12-01T10:45:50.573Z,4.00
2022-12-01T10:48:20.705Z,4.00
2022-12-01T10:50:50.463Z,4.10
2022-12-01T10:53:32.018Z,4.10
2022-12-01T10:56:05.275Z,4.10
2022-12-01T10:58:41.205Z,4.10
2022-12-01T11:01:18.537Z,4.10
2022-12-01T11:03:52.173Z,4.20
2022-12-01T11:06:25.245Z,4.20
2022-12-01T11:08:56.248Z,4.20
2022-12-01T11:11:31.147Z,4.20
2022-12-01T11:14:04.608Z,4.30
2022-12-01T11:16:51.999Z,4.20
2022-12-01T11:19:27.211Z,4.30
2022-12-01T11:21:57.759Z,4.30
2022-12-01T11:24:42.341Z,4.30
2022-12-01T11:27:17.661Z,4.30
2022-12-01T11:29:49.601Z,4.30
2022-12-01T11:32:22.701Z,4.30
2022-12-01T11:34:54.342Z,4.30
2022-12-01T11:37:25.383Z,4.30
2022-12-01T11:39:53.697Z,4.30
2022-12-01T11:42:27.923Z,4.30
2022-12-01T11:45:01.671Z,4.20
2022-12-01T11:47:29.858Z,4.20
2022-12-01T11:49:59.684Z,4.20
2022-12-01T11:52:31.185Z,4.20
2022-12-01T11:55:08.465Z,4.20
2022-12-01T11:57:40.864Z,4.20
2022-12-01T12:00:16.851Z,4.20
2022-12-01T12:02:56.830Z,4.20
2022-12-01T12:06:17.779Z,4.20
2022-12-01T12:09:12.366Z,4.10
2022-12-01T12:11:47.204Z,4.10
2022-12-01T12:14:29.819Z,4.10
2022-12-01T12:17:16.852Z,4.10
2022-12-01T12:20:20.461Z,4.10
2022-12-01T12:22:59.785Z,4.10
2022-12-01T12:25:38.221Z,4.10
2022-12-01T12:28:29.465Z,4.10
2022-12-01T12:31:04.988Z,4.10
2022-12-01T12:33:57.820Z,4.10
2022-12-01T12:36:37.299Z,4.10
2022-12-01T12:39:18.706Z,4.10
2022-12-01T12:41:49.554Z,4.10
2022-12-01T12:44:44.408Z,4.10
2022-12-01T12:47:26.493Z,4.10
2022-12-01T12:50:06.987Z,4.10
2022-12-01T12:52:37.739Z,4.00
2022-12-01T12:55:15.588Z,4.00
2022-12-01T12:57:48.852Z,4.00
2022-12-01T13:00:19.656Z,3.90
2022-12-01T13:02:52.186Z,3.90
2022-12-01T13:05:25.996Z,3.90
2022-12-01T13:07:59.708Z,3.90
2022-12-01T13:10:37.728Z,3.90
2022-12-01T13:13:18.792Z,3.90
2022-12-01T13:15:49.123Z,3.90
2022-12-01T13:18:27.499Z,3.90
2022-12-01T13:20:58.212Z,3.90
2022-12-01T13:23:27.141Z,3.80
2022-12-01T13:25:58.293Z,3.80
2022-12-01T13:28:30.190Z,3.80
2022-12-01T13:31:01.313Z,3.80
2022-12-01T13:33:29.852Z,3.70
2022-12-01T13:36:29.823Z,3.70
2022-12-01T13:38:57.989Z,3.70
2022-12-01T13:41:29.509Z,3.60
2022-12-01T13:44:03.694Z,3.60
2022-12-01T13:46:34.586Z,3.60
2022-12-01T13:49:05.149Z,3.60
2022-12-01T13:52:06.308Z,3.60
2022-12-01T13:54:38.292Z,3.60
2022-12-01T13:57:13.149Z,3.60
2022-12-01T14:00:07.707Z,3.60
2022-12-01T14:02:37.571Z,3.60
2022-12-01T14:05:46.057Z,3.60
2022-12-01T14:08:22.668Z,3.60
2022-12-01T14:10:57.702Z,3.50
2022-12-01T14:13:27.361Z,3.50
2022-12-01T14:15:57.345Z,3.50
2022-12-01T14:18:45.258Z,3.50
2022-12-01T14:21:14.603Z,3.50
2022-12-01T14:24:01.953Z,3.50
2022-12-01T14:26:32.323Z,3.50
2022-12-01T14:29:12.000Z,3.50
2022-12-01T14:32:25.922Z,3.50
2022-12-01T14:35:03.999Z,3.50
2022-12-01T14:37:43.545Z,3.40
2022-12-01T14:40:18.493Z,3.40
2022-12-01T14:43:09.358Z,3.40
2022-12-01T14:45:42.591Z,3.40
2022-12-01T14:48:14.640Z,3.50
2022-12-01T14:50:49.104Z,3.50
2022-12-01T14:53:24.439Z,3.50
2022-12-01T14:55:57.309Z,3.40
2022-12-01T14:58:29.771Z,3.40
2022-12-01T15:01:08.346Z,3.40
2022-12-01T15:03:40.944Z,3.40
2022-12-01T15:06:09.459Z,3.40
2022-12-01T15:08:43.550Z,3.40
2022-12-01T15:11:22.793Z,3.30
2022-12-01T15:13:54.037Z,3.40
2022-12-01T15:16:24.039Z,3.40
2022-12-01T15:18:52.461Z,3.30
2022-12-01T15:21:23.482Z,3.30
2022-12-01T15:23:56.695Z,3.40
2022-12-01T15:26:27.446Z,3.40
2022-12-01T15:29:17.002Z,3.40
2022-12-01T15:31:48.172Z,3.40
2022-12-01T15:34:20.196Z,3.40
2022-12-01T15:36:49.282Z,3.40
2022-12-01T15:39:19.307Z,3.40
2022-12-01T15:41:53.705Z,3.40
2022-12-01T15:44:29.222Z,3.40
2022-12-01T15:46:57.366Z,3.40
2022-12-01T15:49:32.597Z,3.40
2022-12-01T15:52:08.807Z,3.40
2022-12-01T15:54:38.101Z,3.40
2022-12-01T15:57:07.024Z,3.40
2022-12-01T15:59:39.935Z,3.30
2022-12-01T16:02:22.464Z,3.30
2022-12-01T16:05:00.291Z,3.30
2022-12-01T16:08:04.433Z,3.30
2022-12-01T16:10:30.125Z,3.20
2022-12-01T16:13:31.312Z,3.20
2022-12-01T16:16:00.749Z,3.20
2022-12-01T16:18:32.296Z,3.20
2022-12-01T16:21:05.356Z,3.20
2022-12-01T16:23:34.349Z,3.20
2022-12-01T16:26:08.351Z,3.20
2022-12-01T16:28:36.573Z,3.20
2022-12-01T16:31:10.176Z,3.20
2022-12-01T16:33:40.645Z,3.20
2022-12-01T16:36:09.177Z,3.20
2022-12-01T16:38:37.162Z,3.20
2022-12-01T16:41:17.256Z,3.20
2022-12-01T16:44:12.603Z,3.20
2022-12-01T16:46:38.974Z,3.20
2022-12-01T16:49:07.288Z,3.20
2022-12-01T16:51:54.843Z,3.20
2022-12-01T16:54:23.461Z,3.20
2022-12-01T16:56:51.441Z,3.20
2022-12-01T16:59:20.094Z,3.20
2022-12-01T17:01:49.532Z,3.20
2022-12-01T17:04:17.917Z,3.20
2022-12-01T17:06:45.943Z,3.20
2022-12-01T17:09:13.962Z,3.20
2022-12-01T17:11:41.916Z,3.20
2022-12-01T17:14:09.953Z,3.20
2022-12-01T17:16:38.556Z,3.10
2022-12-01T17:19:07.933Z,3.10
2022-12-01T17:21:35.907Z,3.10
2022-12-01T17:24:04.312Z,3.00
2022-12-01T17:26:32.308Z,3.00
2022-12-01T17:29:00.304Z,3.00
2022-12-01T17:31:28.701Z,3.00
2022-12-01T17:33:56.703Z,3.00
2022-12-01T17:36:26.087Z,3.00
2022-12-01T17:38:54.053Z,2.90
2022-12-01T17:41:24.777Z,3.00
2022-12-01T17:43:52.908Z,3.00
2022-12-01T17:46:20.929Z,3.00
2022-12-01T17:48:50.182Z,2.90
2022-12-01T17:51:18.161Z,3.00
2022-12-01T17:53:47.483Z,3.00
2022-12-01T17:56:17.382Z,3.00
2022-12-01T17:58:45.554Z,3.00
2022-12-01T18:01:16.189Z,3.00
2022-12-01T18:03:44.957Z,3.00
2022-12-01T18:06:13.641Z,2.90
2022-12-01T18:08:42.134Z,3.00
2022-12-01T18:11:14.022Z,3.00
2022-12-01T18:13:43.917Z,3.00
2022-12-01T18:16:14.971Z,2.90
2022-12-01T18:18:43.346Z,2.90
2022-12-01T18:21:14.208Z,3.00
2022-12-01T18:23:42.248Z,3.00
2022-12-01T18:26:15.928Z,3.00
2022-12-01T18:28:44.739Z,3.00
2022-12-01T18:31:14.769Z,3.00
2022-12-01T18:33:44.608Z,3.10
2022-12-01T18:36:14.817Z,3.10
2022-12-01T18:38:42.946Z,3.10
2022-12-01T18:41:12.263Z,3.20
2022-12-01T18:43:40.382Z,3.20
2022-12-01T18:46:08.857Z,3.20
2022-12-01T18:48:37.067Z,3.10
2022-12-01T18:51:06.346Z,3.20
2022-12-01T18:53:35.030Z,3.20
2022-12-01T18:56:04.292Z,3.20
2022-12-01T18:58:34.537Z,3.20
2022-12-01T19:01:03.373Z,3.20
2022-12-01T19:03:31.716Z,3.20
2022-12-01T19:05:59.916Z,3.20
2022-12-01T19:08:27.892Z,3.10
2022-12-01T19:11:00.353Z,3.10
2022-12-01T19:13:28.511Z,3.10
2022-12-01T19:15:58.232Z,3.20
2022-12-01T19:18:26.310Z,3.20
2022-12-01T19:20:54.291Z,3.20
2022-12-01T19:23:22.262Z,3.20
2022-12-01T19:25:50.289Z,3.20
2022-12-01T19:28:18.242Z,3.20
2022-12-01T19:30:48.284Z,3.20
2022-12-01T19:33:17.976Z,3.20
2022-12-01T19:35:45.960Z,3.20
2022-12-01T19:38:14.286Z,3.20
2022-12-01T19:40:43.141Z,3.20
2022-12-01T19:43:11.125Z,3.20
2022-12-01T19:45:39.839Z,3.10
2022-12-01T19:48:07.939Z,3.10
2022-12-01T19:50:37.859Z,3.10
2022-12-01T19:53:05.846Z,3.10
2022-12-01T19:55:33.890Z,3.10
2022-12-01T19:58:01.870Z,3.10
2022-12-01T20:00:30.206Z,3.10
2022-12-01T20:02:59.849Z,3.10
2022-12-01T20:05:27.834Z,3.10
2022-12-01T20:07:57.253Z,3.20
2022-12-01T20:10:25.265Z,3.20
2022-12-01T20:12:53.247Z,3.10
2022-12-01T20:15:21.335Z,3.10
2022-12-01T20:17:50.196Z,3.10
2022-12-01T20:20:18.258Z,3.00
2022-12-01T20:22:46.254Z,3.00
2022-12-01T20:25:15.613Z,3.00
2022-12-01T20:27:45.386Z,3.00
2022-12-01T20:30:14.962Z,3.00
2022-12-01T20:32:42.982Z,3.00
2022-12-01T20:35:11.016Z,3.00
2022-12-01T20:37:39.018Z,2.90
2022-12-01T20:40:08.268Z,2.90
2022-12-01T20:42:39.648Z,2.90
2022-12-01T20:45:08.343Z,2.90
2022-12-01T20:47:37.035Z,2.90
2022-12-01T20:50:05.654Z,2.90
2022-12-01T20:52:33.645Z,2.90
2022-12-01T20:55:01.631Z,2.80
2022-12-01T20:57:29.698Z,2.80
2022-12-01T20:59:59.041Z,2.80
2022-12-01T21:02:27.068Z,2.80
2022-12-01T21:04:58.809Z,2.80
2022-12-01T21:07:27.224Z,2.80
2022-12-01T21:09:55.219Z,2.80
2022-12-01T21:12:40.931Z,2.70
2022-12-01T21:15:25.406Z,2.70
2022-12-01T21:17:59.078Z,2.70
2022-12-01T21:20:29.408Z,2.60
2022-12-01T21:23:02.290Z,2.70
2022-12-01T21:25:30.978Z,2.60
2022-12-01T21:28:04.830Z,2.70
2022-12-01T21:30:34.262Z,2.70
2022-12-01T21:33:16.838Z,2.60
2022-12-01T21:35:44.816Z,2.60
2022-12-01T21:38:18.966Z,2.60
2022-12-01T21:40:49.915Z,2.60
2022-12-01T21:43:25.343Z,2.60
2022-12-01T21:45:57.630Z,2.60
2022-12-01T21:48:25.746Z,2.60
2022-12-01T21:51:01.575Z,2.60
2022-12-01T21:53:37.279Z,2.60
2022-12-01T21:56:05.521Z,2.50
2022-12-01T21:58:37.275Z,2.50
2022-12-01T22:01:17.892Z,2.50
2022-12-01T22:03:47.014Z,2.60
2022-12-01T22:06:29.701Z,2.60
2022-12-01T22:09:01.418Z,2.60
2022-12-01T22:11:31.057Z,2.60
2022-12-01T22:14:10.487Z,2.70
2022-12-01T22:16:42.967Z,2.60
2022-12-01T22:19:27.149Z,2.60
2022-12-01T22:22:02.879Z,2.60
2022-12-01T22:24:39.823Z,2.60
2022-12-01T22:27:24.607Z,2.60
2022-12-01T22:29:53.867Z,2.60
2022-12-01T22:32:52.132Z,2.50
2022-12-01T22:35:36.115Z,2.50
2022-12-01T22:38:31.923Z,2.50
2022-12-01T22:41:03.869Z,2.50
2022-12-01T22:43:46.077Z,2.40
2022-12-01T22:46:33.259Z,2.40
2022-12-01T22:49:13.654Z,2.30
2022-12-01T22:51:44.086Z,2.30
2022-12-01T22:54:28.433Z,2.30
2022-12-01T22:57:06.278Z,2.30
2022-12-01T22:59:36.634Z,2.20
2022-12-01T23:02:20.731Z,2.30
2022-12-01T23:04:53.522Z,2.20
2022-12-01T23:07:32.499Z,2.30
2022-12-01T23:10:06.471Z,2.30
2022-12-01T23:12:37.000Z,2.30
2022-12-01T23:15:23.593Z,2.30
2022-12-01T23:17:52.060Z,2.30
2022-12-01T23:20:34.753Z,2.30
2022-12-01T23:23:04.879Z,2.30
2022-12-01T23:25:35.037Z,2.30
2022-12-01T23:28:06.636Z,2.20
2022-12-01T23:30:35.708Z,2.20
2022-12-01T23:33:18.702Z,2.20
2022-12-01T23:35:52.441Z,2.20
2022-12-01T23:38:23.168Z,2.20
2022-12-01T23:40:53.726Z,2.20
2022-12-01T23:43:24.010Z,2.20
2022-12-01T23:45:59.417Z,2.30
2022-12-01T23:48:33.724Z,2.20
2022-12-01T23:51:03.594Z,2.30
2022-12-01T23:53:33.424Z,2.30
2022-12-01T23:56:08.273Z,2.30
2022-12-01T23:58:36.312Z,2.20
